createdAt,value
2018-04-19T00:02:22.818Z,87.30
2018-04-19T00:04:49.344Z,87.90
2018-04-19T00:07:15.801Z,87.60
2018-04-19T00:09:42.260Z,88.00
2018-04-19T00:12:09.449Z,88.80
2018-04-19T00:14:35.925Z,88.50
2018-04-19T00:17:02.432Z,88.60
2018-04-19T00:19:28.939Z,88.70
2018-04-19T00:21:55.436Z,88.60
2018-04-19T00:24:21.896Z,89.00
2018-04-19T00:26:48.441Z,89.10
2018-04-19T00:29:14.976Z,89.60
2018-04-19T00:31:42.840Z,89.50
2018-04-19T00:34:09.268Z,89.80
2018-04-19T00:36:36.540Z,90.00
2018-04-19T00:39:03.135Z,90.00
2018-04-19T00:41:29.595Z,90.00
2018-04-19T00:43:56.767Z,90.30
2018-04-19T00:46:23.208Z,90.30
2018-04-19T00:48:49.666Z,90.40
2018-04-19T00:51:16.130Z,90.60
2018-04-19T00:53:42.590Z,90.70
2018-04-19T00:56:09.045Z,90.80
2018-04-19T00:58:35.483Z,90.80
2018-04-19T01:01:01.950Z,90.70
2018-04-19T01:03:28.403Z,90.60
2018-04-19T01:05:54.857Z,90.60
2018-04-19T01:08:21.317Z,90.70
2018-04-19T01:10:47.807Z,90.70
2018-04-19T01:13:15.067Z,91.10
2018-04-19T01:15:42.270Z,90.80
2018-04-19T01:18:08.759Z,90.80
2018-04-19T01:20:35.256Z,90.90
2018-04-19T01:23:01.786Z,91.00
2018-04-19T01:25:28.314Z,91.00
2018-04-19T01:27:54.782Z,91.00
2018-04-19T01:30:21.269Z,91.00
2018-04-19T01:32:47.714Z,91.00
2018-04-19T01:35:14.179Z,90.90
2018-04-19T01:37:40.656Z,91.00
2018-04-19T01:40:07.111Z,91.00
2018-04-19T01:42:33.558Z,90.90
2018-04-19T01:45:00.031Z,90.80
2018-04-19T01:47:27.255Z,90.70
2018-04-19T01:49:53.777Z,90.70
2018-04-19T01:52:20.223Z,91.10
2018-04-19T01:54:46.741Z,91.30
2018-04-19T01:57:13.287Z,91.50
2018-04-19T01:59:39.704Z,91.80
2018-04-19T02:02:06.190Z,91.70
2018-04-19T02:04:34.137Z,91.80
2018-04-19T02:07:01.166Z,91.80
2018-04-19T02:09:27.596Z,91.70
2018-04-19T02:11:54.068Z,92.10
2018-04-19T02:14:20.566Z,92.30
2018-04-19T02:16:47.062Z,92.50
2018-04-19T02:19:14.313Z,92.60
2018-04-19T02:21:40.782Z,92.60
2018-04-19T02:24:07.264Z,92.70
2018-04-19T02:26:34.483Z,92.20
2018-04-19T02:29:00.994Z,92.50
2018-04-19T02:31:27.538Z,92.00
2018-04-19T02:33:53.976Z,92.10
2018-04-19T02:36:20.520Z,92.10
2018-04-19T02:38:47.031Z,92.30
2018-04-19T02:41:14.742Z,92.50
2018-04-19T02:43:41.241Z,92.70
2018-04-19T02:46:07.753Z,92.80
2018-04-19T02:48:34.200Z,93.00
2018-04-19T02:51:00.658Z,93.00
2018-04-19T02:53:27.152Z,93.00
2018-04-19T02:55:53.651Z,93.10
2018-04-19T02:58:20.130Z,93.20
2018-04-19T03:00:46.604Z,93.20
2018-04-19T03:03:13.061Z,93.20
2018-04-19T03:05:40.321Z,93.00
2018-04-19T03:08:06.781Z,92.60
2018-04-19T03:10:33.257Z,92.40
2018-04-19T03:13:00.509Z,92.10
2018-04-19T03:15:26.979Z,92.10
2018-04-19T03:17:54.179Z,92.10
2018-04-19T03:20:20.678Z,91.80
2018-04-19T03:22:47.863Z,91.80
2018-04-19T03:25:14.367Z,91.80
2018-04-19T03:27:41.612Z,91.50
2018-04-19T03:30:08.884Z,91.20
2018-04-19T03:32:35.417Z,91.20
2018-04-19T03:35:01.898Z,91.00
2018-04-19T03:37:28.380Z,91.00
2018-04-19T03:39:55.587Z,90.80
2018-04-19T03:42:22.041Z,90.80
2018-04-19T03:44:48.500Z,90.80
2018-04-19T03:47:14.989Z,90.80
2018-04-19T03:49:41.443Z,90.90
2018-04-19T03:52:07.938Z,90.90
2018-04-19T03:54:34.474Z,91.30
2018-04-19T03:57:00.984Z,91.70
2018-04-19T03:59:27.443Z,91.80
2018-04-19T04:01:53.933Z,92.00
2018-04-19T04:04:21.121Z,92.20
2018-04-19T04:06:47.611Z,92.20
2018-04-19T04:09:14.062Z,92.60
2018-04-19T04:11:40.543Z,92.00
2018-04-19T04:14:07.774Z,92.70
2018-04-19T04:16:46.345Z,92.40
2018-04-19T04:19:25.014Z,92.80
2018-04-19T04:22:03.659Z,92.50
2018-04-19T04:24:30.992Z,92.60
2018-04-19T04:26:57.481Z,92.80
2018-04-19T04:29:23.983Z,92.90
2018-04-19T04:31:50.453Z,93.00
2018-04-19T04:34:16.946Z,93.30
2018-04-19T04:36:43.441Z,93.40
2018-04-19T04:39:09.909Z,93.30
2018-04-19T04:41:36.373Z,93.40
2018-04-19T04:44:02.876Z,93.60
2018-04-19T04:46:29.334Z,93.70
2018-04-19T04:48:55.785Z,93.80
2018-04-19T04:51:22.241Z,93.90
2018-04-19T04:53:48.690Z,93.90
2018-04-19T04:56:15.150Z,94.10
2018-04-19T04:58:41.577Z,94.10
2018-04-19T05:01:07.986Z,94.10
2018-04-19T05:03:34.394Z,94.10
2018-04-19T05:06:00.883Z,94.10
2018-04-19T05:08:27.348Z,93.90
2018-04-19T05:10:53.761Z,93.90
2018-04-19T05:13:20.157Z,94.00
2018-04-19T05:15:46.569Z,94.10
2018-04-19T05:18:12.977Z,94.00
2018-04-19T05:20:39.404Z,94.10
2018-04-19T05:23:05.829Z,94.10
2018-04-19T05:25:32.257Z,94.30
2018-04-19T05:27:58.685Z,94.40
2018-04-19T05:30:25.120Z,94.30
2018-04-19T05:32:51.544Z,94.30
2018-04-19T05:35:18.004Z,94.40
2018-04-19T05:37:44.410Z,94.50
2018-04-19T05:40:10.857Z,94.50
2018-04-19T05:42:37.284Z,94.50
2018-04-19T05:45:03.738Z,94.70
2018-04-19T05:47:30.149Z,94.50
2018-04-19T05:49:56.572Z,94.60
2018-04-19T05:52:23.014Z,94.60
2018-04-19T05:54:49.474Z,94.70
2018-04-19T05:57:15.962Z,94.60
2018-04-19T05:59:42.392Z,94.50
2018-04-19T06:02:08.814Z,94.40
2018-04-19T06:04:35.249Z,94.40
2018-04-19T06:07:01.687Z,94.30
2018-04-19T06:09:28.857Z,94.20
2018-04-19T06:11:55.288Z,94.20
2018-04-19T06:14:21.723Z,94.10
2018-04-19T06:16:48.142Z,94.00
2018-04-19T06:19:14.607Z,93.80
2018-04-19T06:21:41.103Z,93.70
2018-04-19T06:24:07.518Z,93.60
2018-04-19T06:26:34.733Z,93.60
2018-04-19T06:29:01.170Z,93.60
2018-04-19T06:31:27.596Z,93.70
2018-04-19T06:33:54.010Z,93.70
2018-04-19T06:36:20.421Z,93.60
2018-04-19T06:38:47.579Z,92.70
2018-04-19T06:41:14.737Z,92.10
2018-04-19T06:43:41.159Z,92.10
2018-04-19T06:46:07.603Z,91.50
2018-04-19T06:48:34.117Z,90.90
2018-04-19T06:51:00.517Z,90.00
2018-04-19T06:53:26.946Z,88.90
2018-04-19T06:55:53.641Z,87.40
2018-04-19T06:58:20.046Z,87.20
2018-04-19T07:00:46.483Z,87.10
2018-04-19T07:03:12.889Z,86.30
2018-04-19T07:05:39.310Z,85.00
2018-04-19T07:08:05.734Z,84.70
2018-04-19T07:10:32.158Z,83.60
2018-04-19T07:12:58.584Z,82.90
2018-04-19T07:15:25.012Z,83.00
2018-04-19T07:17:51.449Z,82.70
2018-04-19T07:20:17.901Z,81.50
2018-04-19T07:22:44.406Z,80.70
2018-04-19T07:25:10.821Z,80.70
2018-04-19T07:27:38.039Z,79.00
2018-04-19T07:30:04.997Z,78.90
2018-04-19T07:32:31.430Z,77.70
2018-04-19T07:34:57.867Z,77.10
2018-04-19T07:37:24.283Z,76.50
2018-04-19T07:39:50.689Z,76.40
2018-04-19T07:42:17.107Z,76.20
2018-04-19T07:44:43.542Z,75.40
2018-04-19T07:47:09.945Z,73.60
2018-04-19T07:49:36.395Z,73.10
2018-04-19T07:52:02.866Z,72.80
2018-04-19T07:54:29.293Z,72.70
2018-04-19T07:56:55.791Z,72.10
2018-04-19T07:59:23.021Z,70.20
2018-04-19T08:01:49.596Z,70.20
2018-04-19T08:04:16.010Z,69.40
2018-04-19T08:06:43.232Z,69.30
2018-04-19T08:09:09.692Z,69.10
2018-04-19T08:11:36.199Z,68.70
2018-04-19T08:14:02.642Z,68.50
2018-04-19T08:16:29.138Z,68.60
2018-04-19T08:18:55.667Z,66.90
2018-04-19T08:21:22.184Z,66.30
2018-04-19T08:23:48.624Z,65.10
2018-04-19T08:26:15.827Z,61.30
2018-04-19T08:28:42.299Z,61.20
2018-04-19T08:31:09.484Z,59.30
2018-04-19T08:33:35.938Z,59.30
2018-04-19T08:36:02.467Z,58.90
2018-04-19T08:38:28.940Z,59.30
2018-04-19T08:40:56.892Z,58.10
2018-04-19T08:43:23.341Z,58.10
2018-04-19T08:45:49.846Z,57.60
2018-04-19T08:48:16.330Z,58.00
2018-04-19T08:50:42.757Z,57.70
2018-04-19T08:53:09.184Z,57.40
2018-04-19T08:55:36.355Z,57.40
2018-04-19T08:58:02.845Z,57.30
2018-04-19T09:00:29.255Z,57.90
2018-04-19T09:02:55.679Z,57.10
2018-04-19T09:05:22.094Z,56.20
2018-04-19T09:07:48.540Z,57.80
2018-04-19T09:10:15.002Z,57.70
2018-04-19T09:12:41.446Z,56.50
2018-04-19T09:15:07.884Z,57.30
2018-04-19T09:17:34.312Z,56.70
2018-04-19T09:20:00.755Z,56.50
2018-04-19T09:22:27.223Z,55.90
2018-04-19T09:24:53.698Z,55.90
2018-04-19T09:27:20.132Z,56.10
2018-04-19T09:29:46.620Z,55.80
2018-04-19T09:32:13.784Z,56.70
2018-04-19T09:34:40.216Z,56.60
2018-04-19T09:37:06.652Z,57.10
2018-04-19T09:39:33.104Z,57.00
2018-04-19T09:42:00.232Z,56.30
2018-04-19T09:44:27.410Z,56.80
2018-04-19T09:46:53.839Z,56.70
2018-04-19T09:49:20.267Z,56.40
2018-04-19T09:51:46.693Z,55.50
2018-04-19T09:54:13.235Z,55.60
2018-04-19T09:56:39.624Z,55.50
2018-04-19T09:59:10.521Z,54.20
2018-04-19T10:01:42.981Z,54.20
2018-04-19T10:04:19.382Z,55.10
2018-04-19T10:06:45.811Z,54.20
2018-04-19T10:09:12.248Z,54.40
2018-04-19T10:11:38.659Z,53.80
2018-04-19T10:14:05.082Z,53.30
2018-04-19T10:16:31.507Z,54.40
2018-04-19T10:18:57.927Z,54.00
2018-04-19T10:21:25.179Z,51.70
2018-04-19T10:23:51.547Z,51.70
2018-04-19T10:26:17.969Z,54.10
2018-04-19T10:28:44.379Z,51.80
2018-04-19T10:31:11.551Z,53.20
2018-04-19T10:33:37.978Z,53.20
2018-04-19T10:36:04.396Z,51.30
2018-04-19T10:38:31.582Z,51.80
2018-04-19T10:40:58.000Z,51.80
2018-04-19T10:43:24.442Z,51.00
2018-04-19T10:45:50.879Z,50.80
2018-04-19T10:51:10.087Z,48.70
2018-04-19T10:53:36.514Z,48.30
2018-04-19T10:56:03.022Z,47.50
2018-04-19T10:58:29.477Z,47.00
2018-04-19T11:00:55.897Z,47.10
2018-04-19T11:03:22.371Z,47.20
2018-04-19T11:05:48.836Z,45.30
2018-04-19T11:08:16.041Z,46.70
2018-04-19T11:10:42.477Z,46.60
2018-04-19T11:13:08.889Z,45.90
2018-04-19T11:15:35.322Z,47.00
2018-04-19T11:18:01.741Z,45.30
2018-04-19T11:20:28.160Z,44.30
2018-04-19T11:22:54.586Z,45.00
2018-04-19T11:25:21.739Z,44.30
2018-04-19T11:27:48.927Z,43.10
2018-04-19T11:30:15.355Z,43.10
2018-04-19T11:32:41.771Z,43.60
2018-04-19T11:35:08.191Z,43.60
2018-04-19T11:37:35.368Z,41.60
2018-04-19T11:40:01.799Z,41.60
2018-04-19T11:42:28.250Z,42.80
2018-04-19T11:44:54.695Z,41.90
2018-04-19T11:47:21.115Z,41.90
2018-04-19T11:49:47.544Z,42.50
2018-04-19T11:52:13.971Z,42.20
2018-04-19T11:54:40.439Z,41.70
2018-04-19T11:57:06.915Z,41.50
2018-04-19T11:59:33.371Z,42.80
2018-04-19T12:01:59.828Z,40.40
2018-04-19T12:04:26.243Z,40.20
2018-04-19T12:06:52.674Z,40.70
2018-04-19T12:09:19.097Z,41.30
2018-04-19T12:11:45.535Z,41.20
2018-04-19T12:14:11.959Z,42.20
2018-04-19T12:16:38.383Z,38.50
2018-04-19T12:19:05.672Z,39.00
2018-04-19T12:21:32.105Z,39.00
2018-04-19T12:23:58.533Z,37.40
2018-04-19T12:26:25.002Z,37.60
2018-04-19T12:28:51.419Z,36.60
2018-04-19T12:31:17.830Z,37.10
2018-04-19T12:33:44.241Z,37.30
2018-04-19T12:36:10.689Z,37.10
2018-04-19T12:38:37.147Z,35.90
2018-04-19T12:41:03.607Z,35.50
2018-04-19T12:43:30.140Z,38.30
2018-04-19T12:45:58.083Z,35.60
2018-04-19T12:48:24.509Z,35.50
2018-04-19T12:50:51.020Z,35.80
2018-04-19T12:53:17.481Z,35.30
2018-04-19T12:55:43.945Z,36.60
2018-04-19T12:58:10.400Z,36.80
2018-04-19T13:00:37.649Z,37.00
2018-04-19T13:03:04.832Z,36.30
2018-04-19T13:05:31.320Z,36.30
2018-04-19T13:07:57.744Z,38.50
2018-04-19T13:10:24.263Z,37.30
2018-04-19T13:12:50.810Z,36.30
2018-04-19T13:15:17.265Z,36.20
2018-04-19T13:17:43.700Z,35.80
2018-04-19T13:20:10.129Z,34.90
2018-04-19T13:22:36.646Z,34.90
2018-04-19T13:25:03.111Z,35.70
2018-04-19T13:27:29.539Z,36.30
2018-04-19T13:29:56.024Z,37.50
2018-04-19T13:32:22.467Z,35.90
2018-04-19T13:34:48.946Z,36.50
2018-04-19T13:37:16.894Z,35.80
2018-04-19T13:39:43.319Z,35.80
2018-04-19T13:42:09.785Z,36.10
2018-04-19T13:44:36.242Z,35.70
2018-04-19T13:47:02.751Z,35.70
2018-04-19T13:49:29.349Z,36.30
2018-04-19T13:51:55.765Z,35.10
2018-04-19T13:54:22.207Z,35.90
2018-04-19T13:56:48.628Z,35.30
2018-04-19T13:59:15.050Z,36.60
2018-04-19T14:01:42.228Z,37.00
2018-04-19T14:04:08.651Z,37.00
2018-04-19T14:06:35.064Z,36.90
2018-04-19T14:09:01.515Z,32.70
2018-04-19T14:11:27.949Z,34.40
2018-04-19T14:13:54.369Z,35.20
2018-04-19T14:16:20.785Z,35.40
2018-04-19T14:18:47.943Z,32.90
2018-04-19T14:21:15.089Z,32.10
2018-04-19T14:23:42.247Z,33.50
2018-04-19T14:26:09.415Z,33.80
2018-04-19T14:28:35.839Z,33.70
2018-04-19T14:31:02.303Z,31.90
2018-04-19T14:33:28.730Z,33.40
2018-04-19T14:35:55.149Z,34.90
2018-04-19T14:38:21.634Z,33.20
2018-04-19T14:40:48.025Z,33.90
2018-04-19T14:43:14.450Z,33.80
2018-04-19T14:45:40.914Z,32.70
2018-04-19T14:48:08.096Z,33.60
2018-04-19T14:50:34.503Z,33.60
2018-04-19T14:53:00.929Z,32.30
2018-04-19T14:55:27.404Z,32.20
2018-04-19T14:57:53.800Z,32.90
2018-04-19T15:00:20.217Z,34.00
2018-04-19T15:02:46.623Z,34.10
2018-04-19T15:05:13.055Z,34.10
2018-04-19T15:07:40.227Z,34.20
2018-04-19T15:10:06.699Z,34.20
2018-04-19T15:12:33.125Z,34.70
2018-04-19T15:14:59.563Z,33.60
2018-04-19T15:17:25.985Z,34.10
2018-04-19T15:19:52.446Z,36.10
2018-04-19T15:22:18.847Z,34.50
2018-04-19T15:24:45.268Z,34.10
2018-04-19T15:27:11.706Z,34.60
2018-04-19T15:29:38.134Z,33.20
2018-04-19T15:32:04.573Z,34.30
2018-04-19T15:34:31.091Z,32.90
2018-04-19T15:36:57.539Z,32.10
2018-04-19T15:39:23.969Z,32.60
2018-04-19T15:41:50.417Z,32.40
2018-04-19T15:44:16.839Z,31.80
2018-04-19T15:46:43.271Z,31.50
2018-04-19T15:49:09.745Z,32.90
2018-04-19T15:51:36.194Z,33.10
2018-04-19T15:54:03.398Z,32.50
2018-04-19T15:56:29.829Z,32.40
2018-04-19T15:58:56.321Z,32.50
2018-04-19T16:01:22.680Z,32.40
2018-04-19T16:03:49.129Z,32.00
2018-04-19T16:06:15.555Z,30.80
2018-04-19T16:08:41.967Z,31.00
2018-04-19T16:11:08.439Z,30.00
2018-04-19T16:13:34.907Z,29.90
2018-04-19T16:16:01.326Z,29.50
2018-04-19T16:18:27.752Z,29.80
2018-04-19T16:20:54.183Z,29.10
2018-04-19T16:23:20.593Z,29.60
2018-04-19T16:25:47.093Z,28.60
2018-04-19T16:28:13.532Z,28.50
2018-04-19T16:30:39.961Z,28.60
2018-04-19T16:33:06.397Z,27.40
2018-04-19T16:35:32.815Z,26.40
2018-04-19T16:37:59.369Z,26.90
2018-04-19T16:40:25.853Z,26.30
2018-04-19T16:42:52.314Z,25.60
2018-04-19T16:45:18.737Z,26.20
2018-04-19T16:47:45.216Z,26.10
2018-04-19T16:50:11.676Z,26.70
2018-04-19T16:52:38.087Z,25.80
2018-04-19T16:55:04.578Z,25.90
2018-04-19T16:57:31.006Z,26.30
2018-04-19T16:59:57.436Z,26.50
2018-04-19T17:02:23.906Z,27.50
2018-04-19T17:04:50.369Z,26.20
2018-04-19T17:07:17.574Z,26.40
2018-04-19T17:09:44.035Z,26.40
2018-04-19T17:12:10.489Z,26.90
2018-04-19T17:14:37.692Z,26.80
2018-04-19T17:17:04.218Z,26.80
2018-04-19T17:19:30.734Z,27.40
2018-04-19T17:21:57.151Z,27.40
2018-04-19T17:24:23.647Z,28.20
2018-04-19T17:26:50.085Z,27.10
2018-04-19T17:29:16.561Z,27.30
2018-04-19T17:31:42.983Z,27.30
2018-04-19T17:34:10.141Z,28.00
2018-04-19T17:36:36.588Z,27.90
2018-04-19T17:39:03.084Z,29.80
2018-04-19T17:41:29.502Z,30.60
2018-04-19T17:43:55.944Z,34.70
2018-04-19T17:46:22.403Z,33.80
2018-04-19T17:48:49.574Z,34.50
2018-04-19T17:51:16.724Z,34.60
2018-04-19T17:53:43.973Z,37.30
2018-04-19T17:56:10.359Z,37.20
2018-04-19T17:58:36.806Z,38.40
2018-04-19T18:01:03.244Z,39.50
2018-04-19T18:03:29.699Z,39.60
2018-04-19T18:05:56.903Z,41.10
2018-04-19T18:08:23.320Z,41.00
2018-04-19T18:10:49.761Z,41.20
2018-04-19T18:13:16.223Z,42.80
2018-04-19T18:15:42.683Z,43.40
2018-04-19T18:18:09.853Z,44.00
2018-04-19T18:20:36.277Z,44.00
2018-04-19T18:23:02.707Z,44.30
2018-04-19T18:25:29.128Z,46.90
2018-04-19T18:27:55.624Z,46.60
2018-04-19T18:30:22.039Z,47.50
2018-04-19T18:32:48.469Z,47.00
2018-04-19T18:35:14.896Z,48.10
2018-04-19T18:37:41.353Z,49.30
2018-04-19T18:40:07.803Z,49.10
2018-04-19T18:42:34.220Z,51.40
2018-04-19T18:45:00.718Z,52.30
2018-04-19T18:47:27.142Z,53.20
2018-04-19T18:49:54.379Z,56.70
2018-04-19T18:52:21.591Z,57.30
2018-04-19T18:54:48.132Z,57.00
2018-04-19T18:57:14.646Z,58.40
2018-04-19T18:59:41.143Z,59.10
2018-04-19T19:02:08.441Z,62.20
2018-04-19T19:04:34.946Z,62.10
2018-04-19T19:07:02.226Z,65.30
2018-04-19T19:09:28.772Z,65.30
2018-04-19T19:11:55.251Z,67.50
2018-04-19T19:14:21.768Z,69.00
2018-04-19T19:16:48.360Z,69.90
2018-04-19T19:19:27.052Z,69.80
2018-04-19T19:21:54.266Z,70.80
2018-04-19T19:24:20.783Z,70.70
2018-04-19T19:26:47.263Z,70.90
2018-04-19T19:29:13.710Z,71.90
2018-04-19T19:31:40.975Z,72.80
2018-04-19T19:34:08.179Z,73.50
2018-04-19T19:36:34.650Z,73.50
2018-04-19T19:39:01.932Z,75.50
2018-04-19T19:41:28.406Z,75.40
2018-04-19T19:43:54.915Z,76.30
2018-04-19T19:46:21.387Z,76.20
2018-04-19T19:48:47.870Z,77.40
2018-04-19T19:51:14.367Z,77.80
2018-04-19T19:53:40.832Z,78.40
2018-04-19T19:56:07.399Z,78.60
2018-04-19T19:58:33.863Z,79.20
2018-04-19T20:01:00.357Z,79.50
2018-04-19T20:03:26.834Z,80.30
2018-04-19T20:05:53.367Z,80.50
2018-04-19T20:08:19.854Z,80.80
2018-04-19T20:10:46.318Z,81.20
2018-04-19T20:13:13.883Z,81.80
2018-04-19T20:15:40.393Z,82.20
2018-04-19T20:18:06.914Z,82.60
2018-04-19T20:20:33.371Z,82.80
2018-04-19T20:22:59.847Z,83.00
2018-04-19T20:25:26.374Z,83.20
2018-04-19T20:27:52.874Z,83.60
2018-04-19T20:30:19.379Z,83.80
2018-04-19T20:32:46.645Z,84.20
2018-04-19T20:35:13.192Z,84.10
2018-04-19T20:37:39.630Z,84.40
2018-04-19T20:40:06.136Z,85.10
2018-04-19T20:42:32.612Z,85.10
2018-04-19T20:44:59.063Z,85.00
2018-04-19T20:47:25.528Z,85.20
2018-04-19T20:49:52.725Z,85.80
2018-04-19T20:52:19.167Z,85.80
2018-04-19T20:54:45.621Z,86.00
2018-04-19T20:57:12.051Z,86.10
2018-04-19T20:59:38.496Z,86.40
2018-04-19T21:02:04.957Z,86.30
2018-04-19T21:04:32.256Z,87.30
2018-04-19T21:06:58.715Z,87.30
2018-04-19T21:09:25.160Z,87.20
2018-04-19T21:11:51.631Z,87.10
2018-04-19T21:14:18.077Z,87.30
2018-04-19T21:16:44.538Z,87.20
2018-04-19T21:19:10.975Z,87.70
2018-04-19T21:21:37.431Z,88.50
2018-04-19T21:24:03.886Z,89.00
2018-04-19T21:26:30.317Z,89.90
2018-04-19T21:28:57.494Z,89.10
2018-04-19T21:31:23.930Z,89.10
2018-04-19T21:33:50.419Z,89.40
2018-04-19T21:36:17.645Z,90.20
2018-04-19T21:38:44.051Z,90.20
2018-04-19T21:41:10.538Z,90.30
2018-04-19T21:43:37.701Z,90.60
2018-04-19T21:46:04.160Z,90.60
2018-04-19T21:48:30.647Z,90.50
2018-04-19T21:50:57.160Z,90.40
2018-04-19T21:53:23.636Z,90.40
2018-04-19T21:55:50.108Z,90.50
2018-04-19T21:58:16.545Z,90.70
2018-04-19T22:00:42.970Z,90.80
2018-04-19T22:03:09.389Z,90.80
2018-04-19T22:05:35.844Z,90.90
2018-04-19T22:08:02.289Z,91.10
2018-04-19T22:10:28.723Z,91.20
2018-04-19T22:12:55.164Z,91.40
2018-04-19T22:15:21.611Z,91.50
2018-04-19T22:17:48.074Z,91.50
2018-04-19T22:20:15.248Z,91.60
2018-04-19T22:22:41.664Z,91.60
2018-04-19T22:25:08.855Z,91.80
2018-04-19T22:27:35.278Z,91.70
2018-04-19T22:30:01.715Z,91.80
2018-04-19T22:32:28.120Z,91.90
2018-04-19T22:34:55.283Z,91.90
2018-04-19T22:37:21.734Z,92.00
2018-04-19T22:39:48.141Z,92.00
2018-04-19T22:42:14.578Z,92.10
2018-04-19T22:44:41.024Z,92.00
2018-04-19T22:47:07.462Z,92.10
2018-04-19T22:49:33.911Z,92.30
2018-04-19T22:52:01.180Z,92.30
2018-04-19T22:54:27.614Z,92.10
2018-04-19T22:56:54.075Z,92.20
2018-04-19T22:59:21.285Z,92.40
2018-04-19T23:01:47.720Z,92.40
2018-04-19T23:04:14.172Z,92.50
2018-04-19T23:06:40.640Z,92.70
2018-04-19T23:09:07.819Z,92.60
2018-04-19T23:11:34.312Z,92.60
2018-04-19T23:14:00.768Z,92.70
2018-04-19T23:16:27.211Z,92.70
2018-04-19T23:18:53.651Z,92.70
2018-04-19T23:21:20.134Z,92.70
2018-04-19T23:23:47.349Z,92.90
2018-04-19T23:26:13.803Z,92.90
2018-04-19T23:28:40.250Z,92.90
2018-04-19T23:31:06.695Z,92.90
2018-04-19T23:33:33.140Z,92.70
2018-04-19T23:35:59.584Z,92.80
2018-04-19T23:38:26.009Z,92.90
2018-04-19T23:40:52.438Z,92.80
2018-04-19T23:43:19.608Z,92.90
2018-04-19T23:45:46.056Z,92.90
2018-04-19T23:48:12.473Z,93.00
2018-04-19T23:50:38.920Z,93.00
2018-04-19T23:53:05.374Z,93.00
2018-04-19T23:55:31.799Z,93.20
2018-04-19T23:57:59.451Z,93.30
